Time;durP1;ratioP1;P1;durP2;ratioP2;P2;SDS_P1;SDS_P2;PMS_P1;PMS_P2;Temp;Humidity;BMP_temperature;BMP_pressure;BME280_temperature;BME280_humidity;BME280_pressure;Samples;Min_cycle;Max_cycle;Signal;HPM_P1;HPM_P2
2021/06/24 00:00:34;;;;;;;18.75;5.40;;;;;;;43.14;47.56;162593.52;1779494;80;21217;-78
2021/06/24 00:03:08;;;;;;;17.42;5.35;;;;;;;43.04;47.76;162566.59;1739347;80;21198;-77
2021/06/24 00:05:41;;;;;;;20.27;5.03;;;;;;;42.97;47.91;162546.42;1762213;81;21172;-77
2021/06/24 00:08:14;;;;;;;13.55;5.58;;;;;;;42.97;47.89;162547.80;1726117;82;21374;-79
2021/06/24 00:10:47;;;;;;;16.70;5.20;;;;;;;42.99;47.80;162553.19;1734407;83;21282;-79
2021/06/24 00:13:19;;;;;;;20.45;5.72;;;;;;;43.03;47.74;162562.58;1719300;83;21375;-77
2021/06/24 00:15:52;;;;;;;23.05;4.97;;;;;;;42.96;47.79;162543.73;1755153;81;21180;-78
2021/06/24 00:18:25;;;;;;;16.90;4.67;;;;;;;42.83;47.98;162507.47;1764896;81;21739;-78
2021/06/24 00:20:58;;;;;;;15.50;4.50;;;;;;;42.65;48.38;162460.39;1762767;81;21208;-79
2021/06/24 00:23:30;;;;;;;17.40;5.05;;;;;;;42.69;48.27;162471.16;1770458;81;21758;-79
2021/06/24 00:26:02;;;;;;;13.60;4.90;;;;;;;42.71;48.17;162476.50;1767875;79;21358;-77
2021/06/24 00:28:34;;;;;;;17.85;5.60;;;;;;;42.62;48.30;162451.00;1739777;82;21333;-78
2021/06/24 00:31:07;;;;;;;16.12;5.83;;;;;;;42.60;48.33;162445.63;1768503;81;21366;-78
2021/06/24 00:33:41;;;;;;;16.05;5.05;;;;;;;42.59;48.37;162444.30;1770256;81;21271;-77
2021/06/24 00:36:14;;;;;;;15.85;5.92;;;;;;;42.50;48.54;162418.75;1795704;79;21237;-78
2021/06/24 00:38:46;;;;;;;11.68;4.62;;;;;;;42.71;48.14;162475.17;1760452;79;21207;-78
2021/06/24 00:41:20;;;;;;;14.90;5.35;;;;;;;42.81;47.81;162503.45;1740092;81;21374;-78
2021/06/24 00:43:54;;;;;;;26.73;5.12;;;;;;;42.77;47.77;162492.69;1713734;82;21369;-78
2021/06/24 00:46:26;;;;;;;14.30;5.10;;;;;;;42.78;47.71;162495.38;1739939;82;21330;-78
2021/06/24 00:49:03;;;;;;;13.83;4.50;;;;;;;42.76;47.73;162490.00;1739643;82;21377;-78
2021/06/24 00:51:33;;;;;;;20.40;6.10;;;;;;;42.73;47.75;162481.92;1741984;81;21321;-77
2021/06/24 00:54:06;;;;;;;16.48;4.47;;;;;;;42.69;47.79;162471.16;1741475;81;21861;-78
2021/06/24 00:56:39;;;;;;;15.80;5.53;;;;;;;42.60;47.83;162446.94;1770032;81;21755;-78
2021/06/24 00:59:12;;;;;;;15.55;4.53;;;;;;;42.52;48.02;162424.14;1770192;81;21188;-78
2021/06/24 01:01:44;;;;;;;16.12;5.50;;;;;;;42.46;48.08;162409.36;1770116;81;21793;-79
2021/06/24 01:04:21;;;;;;;15.28;5.28;;;;;;;42.33;48.31;162374.37;1770293;81;21318;-78
2021/06/24 01:06:54;;;;;;;12.10;4.10;;;;;;;42.40;48.24;162393.22;1769974;81;21204;-78
2021/06/24 01:09:26;;;;;;;23.10;4.97;;;;;;;42.46;48.17;162409.36;1742121;81;21262;-77
2021/06/24 01:12:04;;;;;;;20.23;5.72;;;;;;;42.50;47.95;162420.08;1739925;82;21334;-78
2021/06/24 01:14:37;;;;;;;19.37;5.35;;;;;;;42.43;47.96;162401.28;1739772;82;21318;-77
2021/06/24 01:17:09;;;;;;;17.52;5.12;;;;;;;42.45;47.88;162405.30;1739846;82;21246;-78
2021/06/24 01:19:55;;;;;;;18.60;5.70;;;;;;;42.30;48.13;162366.31;1739787;82;21326;-77
2021/06/24 01:22:28;;;;;;;11.18;4.55;;;;;;;42.26;48.06;162355.53;1735797;81;21196;-77
2021/06/24 01:25:00;;;;;;;19.50;4.80;;;;;;;42.33;47.94;162374.37;1716791;83;21189;-79
2021/06/24 01:27:33;;;;;;;17.90;4.20;;;;;;;42.31;47.89;162367.63;1734005;83;21367;-78
2021/06/24 01:30:06;;;;;;;12.25;4.70;;;;;;;42.23;47.95;162347.52;1715866;83;21181;-78
2021/06/24 01:32:41;;;;;;;20.82;5.55;;;;;;;42.21;47.96;162342.14;1733942;83;21779;-77
2021/06/24 01:35:14;;;;;;;13.22;4.47;;;;;;;42.12;48.08;162316.59;1734034;83;21350;-77
2021/06/24 01:37:47;;;;;;;17.82;4.83;;;;;;;42.08;48.12;162305.84;1732797;83;21324;-78
2021/06/24 01:40:20;;;;;;;16.62;4.33;;;;;;;42.03;48.18;162292.44;1734271;83;21311;-77
2021/06/24 01:42:53;;;;;;;14.45;4.37;;;;;;;42.03;48.10;162293.75;1733919;83;21399;-78
2021/06/24 01:45:26;;;;;;;19.10;6.17;;;;;;;42.03;48.07;162292.44;1734048;82;21383;-78
2021/06/24 01:47:59;;;;;;;13.80;4.30;;;;;;;42.02;48.07;162289.75;1733908;83;21197;-79
2021/06/24 01:50:33;;;;;;;17.15;5.20;;;;;;;41.97;48.10;162277.67;1730160;83;21222;-78
2021/06/24 01:53:05;;;;;;;12.98;4.12;;;;;;;41.88;48.22;162250.77;1693124;83;21214;-81
2021/06/24 01:55:40;;;;;;;11.35;4.30;;;;;;;41.71;48.52;162206.45;1692988;83;21268;-78
2021/06/24 01:58:21;;;;;;;13.35;4.80;;;;;;;41.76;48.48;162218.53;1692427;85;21241;-80
2021/06/24 02:00:58;;;;;;;14.80;4.60;;;;;;;41.66;48.56;162193.00;1690594;83;21872;-79
2021/06/24 02:03:34;;;;;;;14.40;4.58;;;;;;;41.61;48.60;162178.23;1717620;83;21162;-78
2021/06/24 02:06:07;;;;;;;16.65;5.35;;;;;;;41.73;48.41;162210.47;1721192;83;21779;-80
2021/06/24 02:08:41;;;;;;;16.90;4.83;;;;;;;41.51;48.65;162152.66;1702366;83;21186;-79
2021/06/24 02:11:16;;;;;;;16.37;4.67;;;;;;;41.46;48.74;162137.89;1697308;83;21899;-78
2021/06/24 02:13:50;;;;;;;21.70;4.92;;;;;;;41.43;48.85;162129.88;1681762;84;21174;-78
2021/06/24 02:16:24;;;;;;;16.02;5.20;;;;;;;41.39;48.92;162120.44;1690971;85;21245;-79
2021/06/24 02:18:56;;;;;;;15.55;5.25;;;;;;;41.37;48.94;162115.11;1690609;83;21249;-79
2021/06/24 02:21:30;;;;;;;13.05;4.80;;;;;;;41.37;48.87;162115.11;1682034;83;21827;-77
2021/06/24 02:24:05;;;;;;;15.72;4.50;;;;;;;41.35;48.91;162109.73;1714919;81;21380;-79
2021/06/24 02:26:39;;;;;;;19.23;4.78;;;;;;;41.52;48.60;162155.34;1681472;84;21160;-78
2021/06/24 02:29:13;;;;;;;17.65;5.20;;;;;;;41.62;48.29;162182.25;1679294;84;21692;-78
2021/06/24 02:31:47;;;;;;;21.82;5.12;;;;;;;41.61;48.23;162178.23;1694470;84;21235;-78
2021/06/24 02:34:24;;;;;;;15.88;4.47;;;;;;;41.56;48.23;162164.78;1676019;84;21211;-79
2021/06/24 02:37:04;;;;;;;17.60;5.62;;;;;;;41.56;48.23;162164.78;1679456;84;21242;-78
2021/06/24 02:39:42;;;;;;;20.88;5.30;;;;;;;41.53;48.26;162156.72;1720497;83;21321;-78
2021/06/24 02:42:16;;;;;;;23.47;5.87;;;;;;;41.48;48.32;162144.64;1677991;84;21384;-78
2021/06/24 02:44:49;;;;;;;19.10;5.17;;;;;;;41.32;48.61;162101.66;1694526;83;21865;-77
2021/06/24 02:47:22;;;;;;;19.60;4.87;;;;;;;41.26;48.77;162084.20;1657818;85;21872;-77
2021/06/24 02:49:55;;;;;;;19.48;4.85;;;;;;;41.25;48.78;162081.52;1694298;83;21175;-78
2021/06/24 02:52:30;;;;;;;23.92;6.50;;;;;;;41.29;48.71;162092.28;1676952;85;21335;-79
2021/06/24 02:55:03;;;;;;;18.77;5.72;;;;;;;41.24;48.80;162078.83;1659964;85;21504;-78
2021/06/24 02:57:37;;;;;;;13.03;5.78;;;;;;;41.19;48.90;162065.44;1675999;84;21281;-78
2021/06/24 03:00:18;;;;;;;18.65;5.28;;;;;;;41.21;48.90;162070.75;1654379;84;21304;-78
2021/06/24 03:02:52;;;;;;;15.40;5.45;;;;;;;41.11;49.06;162045.23;1693788;84;21369;-78
2021/06/24 03:05:26;;;;;;;21.73;5.42;;;;;;;41.20;48.94;162068.13;1676975;85;21927;-78
2021/06/24 03:08:00;;;;;;;26.27;4.92;;;;;;;41.12;49.10;162046.56;1687244;84;21433;-77
2021/06/24 03:10:40;;;;;;;16.90;5.00;;;;;;;41.11;49.10;162045.23;1662287;85;21243;-77
2021/06/24 03:13:14;;;;;;;20.30;6.10;;;;;;;41.14;49.09;162051.94;1675524;85;21849;-77
2021/06/24 03:15:46;;;;;;;18.62;5.22;;;;;;;41.04;49.30;162025.09;1675688;84;21238;-78
2021/06/24 03:18:18;;;;;;;16.20;4.95;;;;;;;41.00;49.41;162014.34;1687783;83;21296;-79
2021/06/24 03:20:51;;;;;;;19.15;6.40;;;;;;;40.97;49.51;162006.33;1729206;82;21801;-79
2021/06/24 03:23:23;;;;;;;15.95;4.83;;;;;;;40.92;49.64;161994.20;1723366;83;21371;-77
2021/06/24 03:25:57;;;;;;;23.07;6.05;;;;;;;41.05;49.42;162029.11;1747291;81;21245;-78
2021/06/24 03:28:30;;;;;;;12.53;4.67;;;;;;;41.08;49.35;162035.86;1769901;81;21170;-78
2021/06/24 03:31:06;;;;;;;21.45;5.83;;;;;;;41.02;49.44;162019.72;1768169;80;21788;-78
2021/06/24 03:33:39;;;;;;;16.00;5.28;;;;;;;40.98;49.59;162008.97;1770223;81;21276;-78
2021/06/24 03:36:12;;;;;;;11.45;5.15;;;;;;;40.98;49.58;162010.34;1765718;81;21647;-77
2021/06/24 03:38:47;;;;;;;18.85;5.70;;;;;;;41.14;49.30;162051.94;1746812;82;21360;-78
2021/06/24 03:41:25;;;;;;;16.52;5.45;;;;;;;41.19;49.14;162065.44;1770160;81;21314;-78
2021/06/24 03:43:59;;;;;;;13.40;5.45;;;;;;;41.21;49.10;162072.13;1743214;81;21374;-78
2021/06/24 03:46:34;;;;;;;14.58;5.15;;;;;;;41.35;48.91;162108.36;1753791;81;21650;-78
2021/06/24 03:49:07;;;;;;;28.02;6.58;;;;;;;41.45;48.59;162136.56;1770118;81;21381;-79
2021/06/24 03:51:40;;;;;;;22.22;6.22;;;;;;;41.42;48.62;162127.19;1742765;81;21172;-78
2021/06/24 03:54:12;;;;;;;24.50;5.37;;;;;;;41.64;48.21;162186.31;1742699;81;21825;-81
2021/06/24 03:56:47;;;;;;;14.15;4.70;;;;;;;41.55;48.35;162163.47;1754474;81;21303;-81
2021/06/24 03:59:23;;;;;;;17.37;5.37;;;;;;;41.48;48.45;162144.64;1741749;81;21375;-83
2021/06/24 04:01:57;;;;;;;25.48;4.85;;;;;;;41.37;48.74;162115.11;1769918;80;21904;-84
2021/06/24 04:04:29;;;;;;;27.27;6.42;;;;;;;41.35;48.87;162108.36;1763391;81;21446;-82
2021/06/24 04:07:03;;;;;;;28.73;6.90;;;;;;;41.43;48.72;162129.88;1729280;82;21219;-83
2021/06/24 04:09:35;;;;;;;18.55;5.47;;;;;;;41.45;48.71;162135.20;1726929;81;21778;-79
2021/06/24 04:12:08;;;;;;;15.72;4.83;;;;;;;41.46;48.73;162139.25;1768404;81;21842;-84
2021/06/24 04:14:57;;;;;;;17.75;5.65;;;;;;;41.50;48.68;162149.97;1719690;83;21222;-78
2021/06/24 04:17:34;;;;;;;17.95;5.53;;;;;;;41.53;48.62;162156.72;1703890;83;21380;-80
2021/06/24 04:20:08;;;;;;;18.27;5.85;;;;;;;41.44;48.80;162132.52;1715134;83;21175;-78
2021/06/24 04:22:42;;;;;;;17.87;5.55;;;;;;;41.43;48.88;162131.19;1720566;83;21726;-79
2021/06/24 04:25:20;;;;;;;17.12;4.85;;;;;;;41.52;48.70;162154.03;1722137;83;21863;-78
2021/06/24 04:27:54;;;;;;;22.02;5.58;;;;;;;41.51;48.70;162151.34;1719941;82;21324;-80
2021/06/24 04:30:27;;;;;;;13.58;5.65;;;;;;;41.53;48.73;162158.03;1755142;81;21336;-81
2021/06/24 04:33:00;;;;;;;17.02;4.45;;;;;;;41.61;48.59;162179.56;1770075;81;21273;-79
2021/06/24 04:35:36;;;;;;;15.23;4.60;;;;;;;41.69;48.44;162199.70;1770335;80;21207;-79
2021/06/24 04:38:10;;;;;;;14.75;5.12;;;;;;;41.68;48.40;162198.37;1767781;81;21842;-79
2021/06/24 04:40:42;;;;;;;10.70;5.15;;;;;;;41.78;48.24;162223.91;1753201;80;21353;-81
2021/06/24 04:43:15;;;;;;;14.55;5.65;;;;;;;41.80;48.17;162230.61;1756523;80;21182;-80
2021/06/24 04:45:49;;;;;;;16.80;4.90;;;;;;;41.67;48.48;162194.37;1728241;82;21220;-79
2021/06/24 04:48:22;;;;;;;14.18;4.70;;;;;;;41.68;48.53;162197.02;1727025;82;21329;-80
2021/06/24 04:50:56;;;;;;;11.75;4.28;;;;;;;41.79;48.38;162226.55;1735851;81;21265;-79
2021/06/24 04:53:29;;;;;;;16.97;4.75;;;;;;;41.80;48.38;162230.61;1725932;81;21417;-77
2021/06/24 04:56:06;;;;;;;14.23;4.28;;;;;;;41.79;48.42;162226.55;1752052;80;21214;-76
2021/06/24 04:58:39;;;;;;;19.02;5.05;;;;;;;41.82;48.43;162236.00;1799163;79;21182;-76
2021/06/24 05:01:29;;;;;;;15.80;4.58;;;;;;;41.85;48.46;162242.69;1749294;80;21355;-77
2021/06/24 05:04:21;;;;;;;14.95;5.33;;;;;;;41.83;48.54;162237.31;1623778;86;22586;-77
2021/06/24 05:07:01;;;;;;;17.82;4.92;;;;;;;41.87;48.49;162249.39;1652067;86;21386;-76
2021/06/24 05:09:33;;;;;;;15.10;4.83;;;;;;;41.91;48.43;162260.16;1672369;82;21326;-77
2021/06/24 05:12:09;;;;;;;22.02;4.87;;;;;;;41.98;48.41;162280.36;1720363;82;21365;-76
2021/06/24 05:14:41;;;;;;;20.68;5.42;;;;;;;42.05;48.22;162299.14;1720359;82;21412;-76
2021/06/24 05:17:15;;;;;;;10.63;3.72;;;;;;;42.24;47.74;162350.20;1742754;80;21799;-78
2021/06/24 05:19:48;;;;;;;9.43;4.00;;;;;;;42.27;47.49;162356.91;1735653;82;21694;-79
2021/06/24 05:22:20;;;;;;;20.05;5.10;;;;;;;42.22;47.49;162344.83;1737950;82;21275;-77
2021/06/24 05:24:52;;;;;;;16.25;4.92;;;;;;;42.21;47.50;162340.77;1728505;82;21320;-78
2021/06/24 05:27:24;;;;;;;15.55;4.40;;;;;;;42.22;47.32;162343.47;1719059;82;21847;-77
2021/06/24 05:29:57;;;;;;;11.88;4.22;;;;;;;42.24;47.25;162350.20;1728994;82;21420;-78
2021/06/24 05:32:29;;;;;;;11.85;5.08;;;;;;;42.37;46.94;162383.83;1748835;82;21195;-76
2021/06/24 05:35:02;;;;;;;13.95;4.08;;;;;;;42.39;46.82;162389.20;1748630;82;21227;-79
2021/06/24 05:37:35;;;;;;;16.90;4.17;;;;;;;42.35;46.81;162379.81;1732906;82;21190;-79
2021/06/24 05:40:09;;;;;;;16.32;4.90;;;;;;;42.39;46.68;162390.53;1731534;82;21207;-77
2021/06/24 05:42:41;;;;;;;16.02;4.97;;;;;;;42.45;46.60;162405.30;1729948;82;22441;-77
2021/06/24 05:45:14;;;;;;;14.83;4.75;;;;;;;42.55;46.36;162432.16;1734837;81;21361;-78
2021/06/24 05:47:47;;;;;;;14.03;4.00;;;;;;;42.63;46.12;162455.02;1724402;82;21333;-76
2021/06/24 05:50:19;;;;;;;13.62;4.35;;;;;;;42.65;46.00;162460.39;1729721;81;21298;-78
2021/06/24 05:52:59;;;;;;;12.25;4.33;;;;;;;42.66;45.92;162463.09;1728803;80;21302;-79
2021/06/24 05:58:26;;;;;;;13.40;3.83;;;;;;;42.72;45.63;162477.86;1728109;82;21964;-80
2021/06/24 06:00:58;;;;;;;;;;;;;;;42.67;45.61;162465.78;1734093;81;21734;-78
2021/06/24 06:03:30;;;;;;;12.63;3.47;;;;;;;42.74;45.54;162484.62;1724676;81;21052;-81
2021/06/24 06:06:04;;;;;;;13.75;4.42;;;;;;;42.89;45.28;162524.94;1723319;82;21421;-77
2021/06/24 06:08:37;;;;;;;12.23;3.98;;;;;;;42.89;45.26;162524.94;1728960;80;21608;-82
2021/06/24 06:11:09;;;;;;;12.85;4.15;;;;;;;43.01;45.06;162558.52;1723242;80;21223;-81
2021/06/24 06:13:43;;;;;;;15.13;4.28;;;;;;;42.93;45.14;162535.72;1720318;82;21722;-79
2021/06/24 06:16:15;;;;;;;15.15;3.58;;;;;;;43.02;44.96;162559.89;1728457;80;21349;-80
2021/06/24 06:18:48;;;;;;;11.85;3.37;;;;;;;43.17;44.76;162600.28;1746224;79;21249;-82
2021/06/24 06:21:21;;;;;;;11.90;4.00;;;;;;;43.13;44.76;162589.50;1724063;80;21750;-79
2021/06/24 06:23:54;;;;;;;14.03;3.60;;;;;;;43.22;44.64;162613.69;1751667;79;23899;-78
2021/06/24 06:26:27;;;;;;;18.07;4.25;;;;;;;43.05;44.87;162567.97;1746408;79;21747;-77
2021/06/24 06:29:03;;;;;;;11.60;3.75;;;;;;;43.05;44.98;162569.28;1745707;79;21992;-78
2021/06/24 06:31:36;;;;;;;11.00;4.08;;;;;;;43.06;44.97;162571.97;1735936;81;21240;-79
2021/06/24 06:34:09;;;;;;;12.00;4.35;;;;;;;43.09;44.92;162580.06;1733148;81;21232;-77
2021/06/24 06:36:42;;;;;;;12.70;3.80;;;;;;;43.11;44.87;162584.06;1732616;81;21235;-78
2021/06/24 06:39:14;;;;;;;13.78;4.25;;;;;;;43.10;44.92;162581.37;1735473;80;21904;-78
2021/06/24 06:41:47;;;;;;;7.30;3.12;;;;;;;43.19;44.77;162605.59;1738839;81;21326;-78
2021/06/24 06:44:19;;;;;;;17.23;4.33;;;;;;;43.27;44.61;162628.47;1733641;81;21381;-80
2021/06/24 06:46:51;;;;;;;14.25;3.75;;;;;;;43.15;44.80;162594.89;1729816;81;21409;-80
2021/06/24 06:49:24;;;;;;;9.58;3.58;;;;;;;43.29;44.68;162632.53;1733897;80;21429;-80
2021/06/24 06:51:56;;;;;;;10.00;3.95;;;;;;;43.22;44.75;162615.06;1737957;81;22166;-82
2021/06/24 06:54:29;;;;;;;13.20;3.58;;;;;;;43.32;44.64;162640.55;1736485;81;21981;-83
2021/06/24 06:57:02;;;;;;;9.68;3.52;;;;;;;43.41;44.53;162666.11;1736624;81;21445;-81
2021/06/24 06:59:35;;;;;;;10.98;3.62;;;;;;;43.42;44.53;162668.80;1730989;81;21239;-79
2021/06/24 07:02:10;;;;;;;12.35;3.47;;;;;;;43.56;44.42;162705.12;1731168;81;21398;-82
2021/06/24 07:04:43;;;;;;;15.60;4.90;;;;;;;43.67;44.31;162734.70;1737100;81;21141;-81
2021/06/24 07:07:18;;;;;;;10.75;2.95;;;;;;;43.75;44.26;162757.56;1731098;81;21271;-82
2021/06/24 07:09:53;;;;;;;11.25;3.50;;;;;;;44.05;43.83;162838.27;1738756;81;21220;-82
2021/06/24 07:12:25;;;;;;;15.20;5.15;;;;;;;44.15;43.63;162865.20;1738625;81;21970;-81
2021/06/24 07:14:59;;;;;;;14.60;4.83;;;;;;;44.03;43.79;162834.25;1732698;80;21381;-82
2021/06/24 07:17:31;;;;;;;14.25;3.50;;;;;;;43.96;44.06;162814.08;1720508;82;21337;-82
2021/06/24 07:20:06;;;;;;;12.73;3.85;;;;;;;43.97;44.20;162816.78;1721804;82;21341;-81
2021/06/24 07:22:39;;;;;;;11.33;3.40;;;;;;;44.02;44.19;162831.56;1719304;82;21392;-79
2021/06/24 07:25:20;;;;;;;10.28;3.90;;;;;;;44.09;44.22;162849.05;1721295;82;21409;-82
2021/06/24 07:27:47;;;;;;;14.03;3.55;;;;;;;44.23;44.12;162888.03;1721628;82;21412;-82
2021/06/24 07:30:22;;;;;;;10.10;4.10;;;;;;;44.36;44.08;162921.73;1722631;82;21389;-78
2021/06/24 07:32:58;;;;;;;13.00;3.02;;;;;;;44.34;44.08;162917.66;1726126;81;21370;-78
2021/06/24 07:35:30;;;;;;;9.50;3.15;;;;;;;44.40;43.98;162933.83;1733029;82;21381;-80
2021/06/24 07:38:03;;;;;;;11.70;3.27;;;;;;;44.39;44.06;162931.14;1744231;82;21222;-80
2021/06/24 07:40:36;;;;;;;8.98;2.98;;;;;;;44.41;44.12;162935.16;1746278;82;21200;-79
2021/06/24 07:43:11;;;;;;;8.98;3.58;;;;;;;44.45;44.12;162947.25;1743306;82;21330;-79
2021/06/24 07:45:44;;;;;;;11.85;3.67;;;;;;;44.66;43.86;163002.47;1731347;82;21388;-78
2021/06/24 07:48:16;;;;;;;13.05;3.02;;;;;;;44.45;44.23;162947.25;1745665;82;21373;-78
2021/06/24 07:50:50;;;;;;;9.70;3.25;;;;;;;44.39;44.41;162929.81;1746109;82;21432;-78
2021/06/24 07:53:22;;;;;;;8.80;3.70;;;;;;;44.66;44.07;163003.84;1745966;82;21726;-79
2021/06/24 07:55:57;;;;;;;7.30;2.62;;;;;;;44.74;43.82;163025.34;1745521;81;21239;-79
2021/06/24 07:58:29;;;;;;;10.80;3.02;;;;;;;44.73;43.81;163021.33;1724407;82;21199;-78
2021/06/24 08:01:04;;;;;;;9.90;3.22;;;;;;;44.90;43.53;163069.72;1725225;82;21227;-78
2021/06/24 08:03:37;;;;;;;5.85;3.27;;;;;;;44.89;43.48;163065.72;1712161;82;21755;-79
2021/06/24 08:06:09;;;;;;;8.65;2.62;;;;;;;44.89;43.48;163065.72;1719225;82;21191;-79
2021/06/24 08:08:43;;;;;;;11.57;4.40;;;;;;;44.87;43.56;163060.33;1716630;83;21705;-78
2021/06/24 08:11:15;;;;;;;6.83;2.58;;;;;;;44.92;43.46;163075.13;1748051;82;21343;-79
2021/06/24 08:13:47;;;;;;;9.33;2.80;;;;;;;44.97;43.43;163087.22;1752049;82;21342;-78
2021/06/24 08:16:20;;;;;;;16.75;3.85;;;;;;;44.99;43.44;163093.94;1752339;82;21178;-79
2021/06/24 08:18:52;;;;;;;11.75;3.42;;;;;;;44.79;43.84;163038.81;1728971;82;21350;-79
2021/06/24 08:21:25;;;;;;;11.05;3.37;;;;;;;44.96;43.70;163084.53;1722614;82;21409;-78
2021/06/24 08:23:58;;;;;;;11.57;4.28;;;;;;;44.99;43.68;163092.61;1723168;82;21719;-79
2021/06/24 08:26:32;;;;;;;6.58;3.05;;;;;;;44.89;43.87;163067.03;1722757;82;21232;-78
2021/06/24 08:29:05;;;;;;;7.92;3.15;;;;;;;44.91;44.01;163072.42;1722929;82;21267;-79
2021/06/24 08:31:39;;;;;;;10.65;4.03;;;;;;;44.97;44.06;163087.22;1737155;82;21205;-79
2021/06/24 08:34:11;;;;;;;10.15;3.52;;;;;;;45.07;44.07;163114.17;1753324;80;21382;-79
2021/06/24 08:36:43;;;;;;;8.20;3.02;;;;;;;44.98;44.27;163091.23;1763148;80;21352;-78
2021/06/24 08:39:15;;;;;;;9.55;3.35;;;;;;;44.96;44.43;163084.53;1774795;81;21809;-79
2021/06/24 08:41:51;;;;;;;9.35;3.60;;;;;;;45.01;44.54;163098.06;1783272;80;21868;-79
2021/06/24 08:44:24;;;;;;;9.25;2.87;;;;;;;44.98;44.68;163091.23;1724834;81;21233;-79
2021/06/24 08:46:58;;;;;;;9.33;3.50;;;;;;;45.01;44.76;163099.37;1716856;82;21197;-79
2021/06/24 08:49:32;;;;;;;8.35;3.60;;;;;;;45.02;44.88;163102.06;1706829;83;21208;-78
2021/06/24 08:52:05;;;;;;;6.60;3.52;;;;;;;45.07;44.97;163115.55;1721272;82;21213;-79
2021/06/24 08:54:37;;;;;;;8.70;3.25;;;;;;;45.09;45.10;163119.56;1717353;82;21165;-79
2021/06/24 08:57:11;;;;;;;9.13;2.98;;;;;;;45.21;45.00;163151.86;1717303;82;21734;-78
2021/06/24 08:59:44;;;;;;;13.53;3.70;;;;;;;45.12;45.24;163127.66;1719024;82;21704;-79
2021/06/24 09:02:18;;;;;;;11.25;3.37;;;;;;;45.17;45.27;163141.08;1746693;82;21292;-79
2021/06/24 09:04:51;;;;;;;10.18;3.47;;;;;;;45.24;45.27;163161.27;1741603;82;21694;-79
2021/06/24 09:18:47;;;;;;;10.08;2.92;;;;;;;45.56;44.80;163247.44;1808764;77;28138;-78
2021/06/24 09:21:26;;;;;;;10.60;3.35;;;;;;;45.78;44.32;163305.38;1750856;80;21343;-77
2021/06/24 09:24:01;;;;;;;10.68;3.90;;;;;;;45.87;44.08;163332.28;1784071;80;21460;-79
2021/06/24 09:26:34;;;;;;;9.15;4.10;;;;;;;45.86;43.99;163329.59;1761163;80;21413;-80
2021/06/24 09:29:07;;;;;;;12.93;2.98;;;;;;;45.86;43.90;163329.59;1766007;80;21307;-79
2021/06/24 09:31:42;;;;;;;8.23;2.95;;;;;;;45.89;43.90;163336.36;1721614;81;21370;-79
2021/06/24 09:34:15;;;;;;;8.60;3.90;;;;;;;45.99;43.75;163363.28;1790417;80;21300;-78
2021/06/24 09:36:52;;;;;;;7.65;3.30;;;;;;;45.89;43.93;163337.69;1782893;80;21343;-80
2021/06/24 09:39:37;;;;;;;8.85;3.45;;;;;;;45.85;44.02;163326.89;1791845;79;21908;-78
2021/06/24 09:42:12;;;;;;;9.15;2.95;;;;;;;45.88;44.04;163334.98;1793395;79;21329;-78
2021/06/24 09:44:49;;;;;;;7.90;3.12;;;;;;;45.96;43.98;163355.19;1821066;79;21183;-79
2021/06/24 09:47:29;;;;;;;6.72;2.85;;;;;;;46.06;43.88;163382.09;1814210;79;21199;-78
2021/06/24 09:50:08;;;;;;;8.68;3.35;;;;;;;45.99;44.04;163364.59;1807973;79;21881;-78
2021/06/24 09:52:41;;;;;;;6.83;3.02;;;;;;;46.10;43.89;163394.27;1800280;79;21416;-78
2021/06/24 09:55:14;;;;;;;7.80;2.25;;;;;;;46.20;43.85;163421.17;1793997;79;21294;-79
2021/06/24 09:57:51;;;;;;;7.83;2.67;;;;;;;46.02;43.97;163371.31;1803787;79;22448;-78
2021/06/24 10:00:32;;;;;;;12.75;4.42;;;;;;;46.09;43.72;163390.19;1821050;79;21299;-80
2021/06/24 10:03:16;;;;;;;7.03;3.02;;;;;;;46.08;43.59;163388.81;1821494;79;21778;-78
2021/06/24 10:05:45;;;;;;;6.33;2.40;;;;;;;46.23;43.34;163427.95;1756816;80;21217;-78
2021/06/24 10:08:18;;;;;;;8.75;2.92;;;;;;;46.05;43.43;163380.78;1787213;80;21245;-78
2021/06/24 10:10:51;;;;;;;5.35;2.67;;;;;;;46.41;42.90;163477.77;1787095;80;21359;-77
2021/06/24 10:13:29;;;;;;;5.65;2.45;;;;;;;46.28;42.93;163441.38;1765137;80;21344;-78
2021/06/24 10:15:57;;;;;;;9.08;2.50;;;;;;;46.24;42.84;163430.64;1756436;81;21182;-77
2021/06/24 10:18:29;;;;;;;9.03;2.40;;;;;;;46.19;42.90;163418.48;1740367;81;21312;-78
2021/06/24 10:21:04;;;;;;;7.40;2.92;;;;;;;46.26;42.83;163437.36;1761170;81;21846;-79
2021/06/24 10:23:36;;;;;;;8.98;2.90;;;;;;;46.29;42.89;163445.45;1744931;81;21295;-78
2021/06/24 10:26:09;;;;;;;10.20;2.70;;;;;;;46.42;42.65;163480.41;1761168;81;21356;-78
2021/06/24 10:28:41;;;;;;;9.08;2.37;;;;;;;46.59;42.48;163526.28;1722312;81;21321;-79
2021/06/24 12:04:36;;;;;;;6.58;3.25;;;;;;;46.56;49.08;163518.19;1763565;80;21807;-80
2021/06/24 12:07:10;;;;;;;7.08;2.20;;;;;;;46.79;48.02;163580.12;1758898;80;21348;-78
2021/06/24 12:09:52;;;;;;;5.97;2.40;;;;;;;46.71;47.86;163557.22;1718862;80;21340;-78
2021/06/24 12:12:26;;;;;;;7.60;2.20;;;;;;;46.96;47.40;163626.00;1742377;80;21233;-78
2021/06/24 12:15:04;;;;;;;6.45;2.62;;;;;;;47.01;46.99;163640.81;1786845;80;21352;-79
2021/06/24 12:17:39;;;;;;;9.70;2.37;;;;;;;47.11;46.27;163666.41;1787573;79;21167;-79
2021/06/24 12:20:22;;;;;;;5.80;2.65;;;;;;;47.11;45.86;163666.41;1786914;80;21815;-78
2021/06/24 12:23:01;;;;;;;8.98;2.45;;;;;;;47.22;45.39;163697.42;1776565;78;21332;-82
2021/06/24 12:25:36;;;;;;;5.72;2.37;;;;;;;47.22;45.13;163696.09;1760491;80;21708;-83
2021/06/24 12:28:10;;;;;;;4.67;2.05;;;;;;;47.41;44.16;163747.27;1777998;79;21356;-85
2021/06/24 12:30:44;;;;;;;6.85;2.30;;;;;;;47.47;43.71;163763.41;1786699;79;21205;-81
2021/06/24 12:33:17;;;;;;;9.88;2.15;;;;;;;47.65;43.24;163813.31;1784983;80;21352;-81
2021/06/24 12:35:51;;;;;;;7.60;1.87;;;;;;;47.73;43.01;163834.91;1759820;80;21347;-82
2021/06/24 12:38:27;;;;;;;5.55;3.25;;;;;;;47.78;42.78;163847.03;1768184;80;21908;-83
2021/06/24 12:41:10;;;;;;;6.83;2.25;;;;;;;47.97;42.48;163900.97;1756261;81;21330;-82
2021/06/24 12:43:45;;;;;;;6.75;2.55;;;;;;;47.98;42.65;163902.30;1756162;79;21385;-82
2021/06/24 12:46:18;;;;;;;14.47;2.92;;;;;;;48.04;42.49;163918.50;1762265;79;21429;-83
2021/06/24 12:48:51;;;;;;;13.32;2.60;;;;;;;48.13;42.01;163944.13;1757880;79;21357;-85
2021/06/24 12:51:27;;;;;;;11.57;2.47;;;;;;;48.17;41.61;163954.88;1755087;80;21172;-83
2021/06/24 12:54:01;;;;;;;14.83;3.00;;;;;;;48.25;41.21;163976.52;1755395;79;21693;-83
2021/06/24 12:56:36;;;;;;;11.75;3.10;;;;;;;48.33;40.73;163998.06;1677307;82;21255;-84
2021/06/24 12:59:27;;;;;;;8.28;2.65;;;;;;;48.41;40.50;164019.61;1725015;82;21379;-83
2021/06/24 13:01:54;;;;;;;15.13;3.10;;;;;;;48.34;40.51;163999.39;1748905;80;21247;-83
2021/06/24 13:04:30;;;;;;;11.12;2.85;;;;;;;48.45;40.41;164030.41;1749779;80;21279;-85
2021/06/24 13:07:03;;;;;;;9.05;2.47;;;;;;;48.61;39.97;164072.25;1749879;80;21737;-84
2021/06/24 13:09:45;;;;;;;9.48;2.33;;;;;;;48.66;39.34;164085.75;1749741;80;21274;-83
2021/06/24 13:12:20;;;;;;;6.62;2.58;;;;;;;48.56;38.97;164058.75;1749542;80;21247;-83
2021/06/24 13:14:55;;;;;;;7.78;2.12;;;;;;;48.59;38.71;164066.84;1725604;81;21261;-82
2021/06/24 13:17:39;;;;;;;16.25;4.03;;;;;;;48.71;38.18;164100.58;1749518;82;21318;-85
2021/06/24 13:20:17;;;;;;;5.55;2.08;;;;;;;48.79;37.82;164122.14;1749171;80;21215;-85
2021/06/24 13:22:56;;;;;;;11.55;2.30;;;;;;;48.80;37.71;164124.84;1748874;80;21803;-85
2021/06/24 13:25:50;;;;;;;5.12;1.85;;;;;;;48.88;37.28;164146.39;1749370;82;22308;-84
2021/06/24 13:28:11;;;;;;;8.38;2.22;;;;;;;48.84;37.40;164135.64;1746078;80;21230;-82
2021/06/24 13:30:45;;;;;;;6.47;2.17;;;;;;;48.98;37.01;164174.78;1725304;82;21285;-85
2021/06/24 13:33:18;;;;;;;5.53;2.37;;;;;;;48.98;36.96;164173.41;1749226;80;21374;-83
2021/06/24 13:35:57;;;;;;;3.52;2.00;;;;;;;48.98;36.91;164173.41;1725242;82;21371;-83
2021/06/24 13:38:32;;;;;;;5.78;3.08;;;;;;;48.89;36.99;164149.09;1723982;81;21439;-84